createdAt,value
2023-03-12T00:02:41.266Z,7.14
2023-03-12T00:06:41.414Z,6.94
2023-03-12T00:10:41.507Z,6.97
2023-03-12T00:14:41.612Z,7.07
2023-03-12T00:18:41.825Z,6.94
2023-03-12T00:22:41.979Z,7.08
2023-03-12T00:26:42.150Z,6.92
2023-03-12T00:30:42.292Z,6.97
2023-03-12T00:34:42.502Z,6.99
2023-03-12T00:38:42.587Z,6.61
2023-03-12T00:42:42.720Z,6.53
2023-03-12T00:46:42.974Z,6.72
2023-03-12T00:50:43.068Z,6.58
2023-03-12T00:54:43.230Z,6.69
2023-03-12T00:58:43.360Z,6.97
2023-03-12T01:02:43.537Z,6.73
2023-03-12T01:06:43.688Z,6.71
2023-03-12T01:10:43.867Z,6.56
2023-03-12T01:14:44.041Z,6.78
2023-03-12T01:18:44.172Z,6.72
2023-03-12T01:22:44.312Z,6.69
2023-03-12T01:26:44.489Z,6.51
2023-03-12T01:30:44.660Z,6.29
2023-03-12T01:34:44.833Z,6.52
2023-03-12T01:38:44.941Z,6.59
2023-03-12T01:42:45.031Z,6.51
2023-03-12T01:46:45.115Z,6.61
2023-03-12T01:50:45.281Z,6.56
2023-03-12T01:54:45.511Z,6.55
2023-03-12T01:58:45.648Z,6.20
2023-03-12T02:02:45.717Z,6.27
2023-03-12T02:06:45.810Z,6.48
2023-03-12T02:10:45.950Z,6.51
2023-03-12T02:14:46.109Z,6.51
2023-03-12T02:18:46.193Z,6.58
2023-03-12T02:22:46.355Z,6.58
2023-03-12T02:26:46.543Z,6.66
2023-03-12T02:30:46.710Z,6.59
2023-03-12T02:34:46.854Z,6.52
2023-03-12T02:38:46.961Z,6.46
2023-03-12T02:42:47.097Z,6.62
2023-03-12T02:46:47.211Z,6.53
2023-03-12T02:50:47.376Z,6.61
2023-03-12T02:54:47.503Z,6.62
2023-03-12T02:58:47.662Z,6.53
2023-03-12T03:02:47.787Z,6.38
2023-03-12T03:06:47.886Z,6.22
2023-03-12T03:10:47.981Z,6.17
2023-03-12T03:14:48.114Z,5.43
2023-03-12T03:18:48.265Z,5.63
2023-03-12T03:22:48.410Z,5.90
2023-03-12T03:26:48.462Z,6.21
2023-03-12T03:30:48.503Z,6.27
2023-03-12T03:34:48.594Z,6.14
2023-03-12T03:38:48.669Z,6.22
2023-03-12T03:42:48.718Z,6.16
2023-03-12T03:46:48.810Z,6.10
2023-03-12T03:50:48.864Z,5.93
2023-03-12T03:54:48.971Z,5.97
2023-03-12T03:58:49.094Z,5.92
2023-03-12T04:02:49.194Z,6.13
2023-03-12T04:06:49.330Z,6.00
2023-03-12T04:10:49.410Z,6.14
2023-03-12T04:14:49.492Z,5.93
2023-03-12T04:18:49.588Z,5.89
2023-03-12T04:22:49.643Z,5.99
2023-03-12T04:26:49.701Z,5.83
2023-03-12T04:30:49.768Z,6.11
2023-03-12T04:34:49.839Z,6.22
2023-03-12T04:38:49.898Z,6.24
2023-03-12T04:42:49.939Z,6.27
2023-03-12T04:46:50.121Z,6.18
2023-03-12T04:50:50.175Z,6.16
2023-03-12T04:54:50.353Z,6.27
2023-03-12T04:58:50.488Z,6.22
2023-03-12T05:02:50.631Z,6.06
2023-03-12T05:06:50.698Z,6.03
2023-03-12T05:10:50.929Z,5.94
2023-03-12T05:14:51.096Z,5.89
2023-03-12T05:18:51.293Z,5.93
2023-03-12T05:22:51.366Z,6.06
2023-03-12T05:26:51.515Z,6.20
2023-03-12T05:30:51.602Z,6.03
2023-03-12T05:34:51.741Z,5.74
2023-03-12T05:38:51.897Z,5.77
2023-03-12T05:42:52.042Z,5.94
2023-03-12T05:46:52.189Z,6.00
2023-03-12T05:50:52.303Z,5.96
2023-03-12T05:54:52.490Z,5.73
2023-03-12T05:58:52.585Z,5.92
2023-03-12T06:02:52.732Z,5.90
2023-03-12T06:06:52.882Z,5.94
2023-03-12T06:10:53.049Z,5.92
2023-03-12T06:14:53.166Z,5.81
2023-03-12T06:18:53.267Z,6.03
2023-03-12T06:22:53.496Z,6.08
2023-03-12T06:26:53.675Z,6.20
2023-03-12T06:30:53.835Z,6.25
2023-03-12T06:34:54.031Z,6.29
2023-03-12T06:38:57.014Z,6.11
2023-03-12T06:42:54.080Z,6.10
2023-03-12T06:46:54.035Z,6.14
2023-03-12T06:50:53.982Z,6.14
2023-03-12T06:54:53.985Z,6.11
2023-03-12T06:58:53.944Z,6.32
2023-03-12T07:02:53.891Z,6.44
2023-03-12T07:06:53.886Z,6.31
2023-03-12T07:10:53.849Z,6.39
2023-03-12T07:14:53.797Z,6.58
2023-03-12T07:18:53.731Z,6.56
2023-03-12T07:22:53.716Z,6.73
2023-03-12T07:26:53.741Z,6.76
2023-03-12T07:30:53.629Z,6.82
2023-03-12T07:34:53.599Z,6.46
2023-03-12T07:38:53.603Z,6.46
2023-03-12T07:42:53.788Z,6.24
2023-03-12T07:46:53.990Z,6.58
2023-03-12T07:50:54.071Z,7.11
2023-03-12T07:54:54.346Z,7.35
2023-03-12T07:58:54.494Z,7.55
2023-03-12T08:02:54.940Z,7.54
2023-03-12T08:06:54.588Z,7.30
2023-03-12T08:10:54.680Z,7.14
2023-03-12T08:14:54.819Z,7.55
2023-03-12T08:18:54.894Z,7.63
2023-03-12T08:22:55.028Z,7.75
2023-03-12T08:26:55.144Z,7.68
2023-03-12T08:30:55.364Z,7.83
2023-03-12T08:34:55.445Z,7.89
2023-03-12T08:38:55.569Z,8.04
2023-03-12T08:42:55.726Z,8.06
2023-03-12T08:46:55.854Z,7.52
2023-03-12T08:50:55.931Z,8.26
2023-03-12T08:54:56.123Z,8.44
2023-03-12T08:58:56.199Z,9.02
2023-03-12T09:02:56.276Z,9.10
2023-03-12T09:06:56.395Z,9.19
2023-03-12T09:10:56.446Z,9.49
2023-03-12T09:15:05.041Z,9.62
2023-03-12T09:18:57.549Z,9.81
2023-03-12T09:22:56.527Z,9.84
2023-03-12T09:26:56.506Z,9.89
2023-03-12T09:30:56.556Z,9.86
2023-03-12T09:34:56.628Z,9.93
2023-03-12T09:38:56.716Z,9.61
2023-03-12T09:42:56.840Z,9.74
2023-03-12T09:46:56.977Z,9.92
2023-03-12T09:50:57.000Z,10.12
2023-03-12T09:54:57.155Z,10.14
2023-03-12T09:58:57.274Z,10.45
2023-03-12T10:02:57.408Z,10.98
2023-03-12T10:06:57.573Z,10.82
2023-03-12T10:10:57.743Z,10.47
2023-03-12T10:14:57.827Z,10.10
2023-03-12T10:18:57.980Z,9.69
2023-03-12T10:22:58.133Z,9.63
2023-03-12T10:26:58.257Z,9.74
2023-03-12T10:30:58.357Z,9.52
2023-03-12T10:34:58.462Z,9.41
2023-03-12T10:38:58.578Z,9.37
2023-03-12T10:42:58.720Z,9.30
2023-03-12T10:46:58.839Z,9.65
2023-03-12T10:50:59.013Z,9.99
2023-03-12T10:54:59.089Z,9.59
2023-03-12T10:58:59.189Z,9.96
2023-03-12T11:02:59.309Z,10.14
2023-03-12T11:06:59.469Z,10.10
2023-03-12T11:10:59.627Z,10.39
2023-03-12T11:14:59.749Z,10.88
2023-03-12T11:18:59.910Z,11.23
2023-03-12T11:23:00.016Z,11.02
2023-03-12T11:27:00.153Z,10.99
2023-03-12T11:31:00.351Z,11.19
2023-03-12T11:35:00.402Z,10.98
2023-03-12T11:39:00.530Z,11.08
2023-03-12T11:43:00.688Z,11.93
2023-03-12T11:47:00.793Z,12.68
2023-03-12T11:51:00.865Z,12.98
2023-03-12T11:55:00.993Z,13.85
2023-03-12T11:59:01.124Z,13.39
2023-03-12T12:03:01.198Z,13.52
2023-03-12T12:07:01.307Z,13.25
2023-03-12T12:11:01.451Z,12.56
2023-03-12T12:15:01.579Z,12.36
2023-03-12T12:19:04.099Z,12.74
2023-03-12T12:23:01.639Z,12.83
2023-03-12T12:27:01.612Z,12.71
2023-03-12T12:31:01.550Z,13.15
2023-03-12T12:35:01.562Z,13.27
2023-03-12T12:39:01.509Z,13.29
2023-03-12T12:43:01.465Z,12.80
2023-03-12T12:47:01.455Z,13.21
2023-03-12T12:51:01.418Z,13.06
2023-03-12T12:55:01.398Z,12.92
2023-03-12T12:59:01.325Z,13.05
2023-03-12T13:03:01.300Z,12.63
2023-03-12T13:07:01.292Z,12.98
2023-03-12T13:11:16.239Z,13.06
2023-03-12T13:15:02.174Z,12.47
2023-03-12T13:19:01.152Z,12.64
2023-03-12T13:23:01.102Z,12.43
2023-03-12T13:27:01.108Z,12.44
2023-03-12T13:31:01.221Z,12.88
2023-03-12T13:35:02.157Z,12.28
2023-03-12T13:39:01.335Z,12.37
2023-03-12T13:43:01.466Z,11.82
2023-03-12T13:47:01.589Z,10.98
2023-03-12T13:51:01.720Z,11.81
2023-03-12T13:55:01.835Z,12.32
2023-03-12T13:59:01.966Z,12.61
2023-03-12T14:03:02.005Z,12.76
2023-03-12T14:07:02.019Z,12.71
2023-03-12T14:11:02.110Z,12.73
2023-03-12T14:15:02.196Z,12.91
2023-03-12T14:19:02.389Z,12.99
2023-03-12T14:23:02.421Z,13.45
2023-03-12T14:27:02.490Z,13.49
2023-03-12T14:31:02.635Z,13.39
2023-03-12T14:35:02.697Z,13.88
2023-03-12T14:39:02.873Z,14.01
2023-03-12T14:43:02.953Z,14.09
2023-03-12T14:47:03.093Z,14.29
2023-03-12T14:51:03.230Z,14.58
2023-03-12T14:55:03.283Z,14.86
2023-03-12T14:59:03.438Z,14.79
2023-03-12T15:03:03.598Z,15.22
2023-03-12T15:07:03.718Z,15.86
2023-03-12T15:11:03.822Z,16.20
2023-03-12T15:15:03.949Z,16.69
2023-03-12T15:19:04.102Z,17.21
2023-03-12T15:23:04.682Z,16.90
2023-03-12T15:27:04.465Z,16.59
2023-03-12T15:31:04.700Z,16.90
2023-03-12T15:35:04.675Z,17.35
2023-03-12T15:39:04.802Z,17.65
2023-03-12T15:43:04.846Z,17.34
2023-03-12T15:47:05.049Z,16.51
2023-03-12T15:51:05.048Z,16.25
2023-03-12T15:55:05.225Z,15.65
2023-03-12T15:59:05.239Z,15.45
2023-03-12T16:03:05.298Z,14.80
2023-03-12T16:07:05.434Z,13.85
2023-03-12T16:11:05.627Z,13.57
2023-03-12T16:15:05.655Z,13.46
2023-03-12T16:19:05.758Z,13.16
2023-03-12T16:23:05.914Z,12.66
2023-03-12T16:27:05.953Z,12.53
2023-03-12T16:31:06.122Z,12.30
2023-03-12T16:35:06.254Z,11.85
2023-03-12T16:39:06.415Z,11.73
2023-03-12T16:43:06.471Z,11.44
2023-03-12T16:47:06.595Z,11.47
2023-03-12T16:51:06.726Z,11.27
2023-03-12T16:55:06.752Z,11.02
2023-03-12T16:59:06.854Z,10.76
2023-03-12T17:03:06.973Z,9.89
2023-03-12T17:07:07.087Z,8.82
2023-03-12T17:11:07.252Z,8.80
2023-03-12T17:15:07.268Z,9.26
2023-03-12T17:19:07.473Z,9.45
2023-03-12T17:23:07.575Z,9.27
2023-03-12T17:27:07.686Z,8.99
2023-03-12T17:31:07.867Z,8.21
2023-03-12T17:35:07.931Z,8.03
2023-03-12T17:39:08.048Z,8.41
2023-03-12T17:43:08.131Z,8.73
2023-03-12T17:47:08.371Z,8.38
2023-03-12T17:51:08.453Z,8.33
2023-03-12T17:55:11.359Z,8.45
2023-03-12T17:59:08.546Z,8.23
2023-03-12T18:03:08.553Z,7.93
2023-03-12T18:07:08.476Z,7.80
2023-03-12T18:11:08.443Z,7.97
2023-03-12T18:15:08.430Z,8.08
2023-03-12T18:19:08.380Z,8.07
2023-03-12T18:23:08.363Z,8.33
2023-03-12T18:27:08.286Z,8.24
2023-03-12T18:31:08.354Z,7.75
2023-03-12T18:35:09.123Z,7.83
2023-03-12T18:39:08.241Z,8.11
2023-03-12T18:43:08.210Z,7.68
2023-03-12T18:47:08.182Z,7.69
2023-03-12T18:51:08.118Z,7.89
2023-03-12T18:55:08.063Z,7.38
2023-03-12T18:59:08.127Z,7.14
2023-03-12T19:03:08.371Z,7.06
2023-03-12T19:07:08.349Z,7.42
2023-03-12T19:11:08.524Z,7.44
2023-03-12T19:15:08.661Z,7.27
2023-03-12T19:19:08.789Z,7.06
2023-03-12T19:23:08.960Z,7.52
2023-03-12T19:27:09.055Z,7.63
2023-03-12T19:31:09.237Z,7.62
2023-03-12T19:35:09.326Z,7.61
2023-03-12T19:39:18.910Z,7.66
2023-03-12T19:43:10.408Z,7.72
2023-03-12T19:47:09.328Z,7.47
2023-03-12T19:51:09.353Z,7.18
2023-03-12T19:55:09.350Z,7.17
2023-03-12T19:59:09.496Z,6.90
2023-03-12T20:03:09.654Z,7.18
2023-03-12T20:07:09.695Z,7.18
2023-03-12T20:11:09.852Z,7.38
2023-03-12T20:15:09.977Z,7.48
2023-03-12T20:19:10.082Z,7.40
2023-03-12T20:23:10.255Z,7.35
2023-03-12T20:27:10.389Z,7.58
2023-03-12T20:31:10.484Z,7.70
2023-03-12T20:35:10.613Z,7.83
2023-03-12T20:39:10.804Z,7.83
2023-03-12T20:43:10.885Z,7.54
2023-03-12T20:47:10.983Z,7.40
2023-03-12T20:51:11.153Z,7.73
2023-03-12T20:55:11.309Z,7.73
2023-03-12T20:59:11.415Z,7.93
2023-03-12T21:03:11.554Z,7.96
2023-03-12T21:07:11.637Z,7.92
2023-03-12T21:11:11.788Z,7.86
2023-03-12T21:15:11.959Z,7.92
2023-03-12T21:19:12.012Z,7.94
2023-03-12T21:23:12.228Z,7.86
2023-03-12T21:27:12.195Z,7.72
2023-03-12T21:31:12.334Z,7.72
2023-03-12T21:35:12.353Z,7.78
2023-03-12T21:39:12.482Z,7.89
2023-03-12T21:43:12.661Z,7.90
2023-03-12T21:47:12.868Z,7.76
2023-03-12T21:51:12.937Z,7.42
2023-03-12T21:55:13.001Z,7.41
2023-03-12T21:59:13.201Z,7.52
2023-03-12T22:03:13.349Z,7.57
2023-03-12T22:07:13.498Z,7.63
2023-03-12T22:11:13.602Z,7.66
2023-03-12T22:15:13.664Z,7.76
2023-03-12T22:19:13.857Z,7.87
2023-03-12T22:23:13.911Z,7.86
2023-03-12T22:27:14.049Z,7.87
2023-03-12T22:31:14.292Z,7.78
2023-03-12T22:35:14.690Z,7.65
2023-03-12T22:39:14.419Z,7.62
2023-03-12T22:43:14.495Z,7.69
2023-03-12T22:47:14.672Z,7.75
2023-03-12T22:51:14.854Z,7.73
2023-03-12T22:55:14.939Z,7.75
2023-03-12T22:59:15.068Z,7.54
2023-03-12T23:03:15.158Z,7.72
2023-03-12T23:07:16.861Z,7.73
2023-03-12T23:11:15.550Z,7.70
2023-03-12T23:15:15.713Z,7.73
2023-03-12T23:19:15.842Z,7.65
2023-03-12T23:23:15.890Z,7.72
2023-03-12T23:27:16.094Z,7.70
2023-03-12T23:31:16.405Z,7.58
2023-03-12T23:35:16.377Z,7.51
2023-03-12T23:39:16.499Z,7.38
2023-03-12T23:43:16.680Z,7.40
2023-03-12T23:47:16.843Z,6.87
2023-03-12T23:51:16.992Z,6.99
2023-03-12T23:55:17.149Z,7.25
2023-03-12T23:59:17.318Z,7.15
